sensor_id;sensor_type;location;lat;lon;timestamp;P1;durP1;ratioP1;P2;durP2;ratioP2
26634;SDS011;14490;54.208;37.686;2023-06-24T00:00:43;16.77;;;14.13;;
26634;SDS011;14490;54.208;37.686;2023-06-24T00:03:11;15.13;;;13.63;;
26634;SDS011;14490;54.208;37.686;2023-06-24T00:05:42;14.32;;;12.63;;
26634;SDS011;14490;54.208;37.686;2023-06-24T00:08:14;16.15;;;12.50;;
26634;SDS011;14490;54.208;37.686;2023-06-24T00:10:47;15.73;;;13.88;;
26634;SDS011;14490;54.208;37.686;2023-06-24T00:13:15;16.67;;;12.85;;
26634;SDS011;14490;54.208;37.686;2023-06-24T00:15:43;17.27;;;12.90;;
26634;SDS011;14490;54.208;37.686;2023-06-24T00:18:11;16.60;;;13.18;;
26634;SDS011;14490;54.208;37.686;2023-06-24T00:20:39;15.55;;;12.55;;
26634;SDS011;14490;54.208;37.686;2023-06-24T00:23:08;17.17;;;13.60;;
26634;SDS011;14490;54.208;37.686;2023-06-24T00:25:39;13.57;;;12.25;;
26634;SDS011;14490;54.208;37.686;2023-06-24T00:28:09;15.27;;;11.95;;
26634;SDS011;14490;54.208;37.686;2023-06-24T00:30:36;13.88;;;11.65;;
26634;SDS011;14490;54.208;37.686;2023-06-24T00:33:03;15.52;;;12.35;;
26634;SDS011;14490;54.208;37.686;2023-06-24T00:35:34;12.20;;;11.00;;
26634;SDS011;14490;54.208;37.686;2023-06-24T00:38:02;13.50;;;10.45;;
26634;SDS011;14490;54.208;37.686;2023-06-24T00:40:29;13.85;;;11.32;;
26634;SDS011;14490;54.208;37.686;2023-06-24T00:42:57;13.60;;;11.43;;
26634;SDS011;14490;54.208;37.686;2023-06-24T00:45:28;15.70;;;11.57;;
26634;SDS011;14490;54.208;37.686;2023-06-24T00:47:57;12.40;;;11.20;;
26634;SDS011;14490;54.208;37.686;2023-06-24T00:50:25;11.75;;;10.70;;
26634;SDS011;14490;54.208;37.686;2023-06-24T00:52:53;12.38;;;11.00;;
26634;SDS011;14490;54.208;37.686;2023-06-24T00:55:21;12.68;;;11.38;;
26634;SDS011;14490;54.208;37.686;2023-06-24T00:57:49;11.57;;;10.68;;
26634;SDS011;14490;54.208;37.686;2023-06-24T01:00:19;12.55;;;11.52;;
26634;SDS011;14490;54.208;37.686;2023-06-24T01:02:50;12.25;;;11.07;;
26634;SDS011;14490;54.208;37.686;2023-06-24T01:05:17;10.60;;;9.80;;
26634;SDS011;14490;54.208;37.686;2023-06-24T01:07:48;11.10;;;10.02;;
26634;SDS011;14490;54.208;37.686;2023-06-24T01:10:20;9.38;;;8.68;;
26634;SDS011;14490;54.208;37.686;2023-06-24T01:12:49;11.63;;;9.23;;
26634;SDS011;14490;54.208;37.686;2023-06-24T01:15:17;10.55;;;9.57;;
26634;SDS011;14490;54.208;37.686;2023-06-24T01:17:52;11.43;;;8.98;;
26634;SDS011;14490;54.208;37.686;2023-06-24T01:20:27;10.25;;;8.85;;
26634;SDS011;14490;54.208;37.686;2023-06-24T01:23:17;11.38;;;9.63;;
26634;SDS011;14490;54.208;37.686;2023-06-24T01:26:21;12.05;;;10.20;;
26634;SDS011;14490;54.208;37.686;2023-06-24T01:33:32;11.05;;;10.05;;
26634;SDS011;14490;54.208;37.686;2023-06-24T01:36:10;9.73;;;8.75;;
26634;SDS011;14490;54.208;37.686;2023-06-24T01:38:43;9.73;;;9.02;;
26634;SDS011;14490;54.208;37.686;2023-06-24T01:41:18;11.52;;;9.02;;
26634;SDS011;14490;54.208;37.686;2023-06-24T01:43:52;10.52;;;9.50;;
26634;SDS011;14490;54.208;37.686;2023-06-24T01:46:21;9.68;;;8.77;;
26634;SDS011;14490;54.208;37.686;2023-06-24T01:48:54;10.30;;;9.27;;
26634;SDS011;14490;54.208;37.686;2023-06-24T01:51:26;11.73;;;10.38;;
26634;SDS011;14490;54.208;37.686;2023-06-24T01:54:03;11.40;;;8.93;;
26634;SDS011;14490;54.208;37.686;2023-06-24T01:56:34;10.35;;;9.45;;
26634;SDS011;14490;54.208;37.686;2023-06-24T01:59:04;10.10;;;9.27;;
26634;SDS011;14490;54.208;37.686;2023-06-24T02:01:34;14.93;;;10.43;;
26634;SDS011;14490;54.208;37.686;2023-06-24T02:04:05;10.73;;;9.82;;
26634;SDS011;14490;54.208;37.686;2023-06-24T02:06:36;10.52;;;9.50;;
26634;SDS011;14490;54.208;37.686;2023-06-24T02:09:06;10.27;;;9.45;;
26634;SDS011;14490;54.208;37.686;2023-06-24T02:11:35;13.30;;;8.80;;
26634;SDS011;14490;54.208;37.686;2023-06-24T02:14:05;9.82;;;8.88;;
26634;SDS011;14490;54.208;37.686;2023-06-24T02:16:34;10.98;;;9.90;;
26634;SDS011;14490;54.208;37.686;2023-06-24T02:19:03;9.68;;;8.98;;
26634;SDS011;14490;54.208;37.686;2023-06-24T02:21:34;10.63;;;9.70;;
26634;SDS011;14490;54.208;37.686;2023-06-24T02:24:04;10.20;;;9.35;;
26634;SDS011;14490;54.208;37.686;2023-06-24T02:26:32;10.07;;;8.90;;
26634;SDS011;14490;54.208;37.686;2023-06-24T02:29:05;10.60;;;9.70;;
26634;SDS011;14490;54.208;37.686;2023-06-24T02:31:35;9.73;;;8.88;;
26634;SDS011;14490;54.208;37.686;2023-06-24T02:34:03;10.07;;;9.25;;
26634;SDS011;14490;54.208;37.686;2023-06-24T02:36:32;10.20;;;9.15;;
26634;SDS011;14490;54.208;37.686;2023-06-24T02:39:00;9.55;;;8.65;;
26634;SDS011;14490;54.208;37.686;2023-06-24T02:41:28;9.65;;;8.85;;
26634;SDS011;14490;54.208;37.686;2023-06-24T02:43:55;8.98;;;7.75;;
26634;SDS011;14490;54.208;37.686;2023-06-24T02:46:22;8.68;;;7.97;;
26634;SDS011;14490;54.208;37.686;2023-06-24T02:48:54;10.40;;;7.55;;
26634;SDS011;14490;54.208;37.686;2023-06-24T02:51:25;8.48;;;7.68;;
26634;SDS011;14490;54.208;37.686;2023-06-24T02:53:53;8.57;;;7.65;;
26634;SDS011;14490;54.208;37.686;2023-06-24T02:56:23;8.80;;;7.47;;
26634;SDS011;14490;54.208;37.686;2023-06-24T02:58:51;8.02;;;7.28;;
26634;SDS011;14490;54.208;37.686;2023-06-24T03:01:20;8.30;;;7.38;;
26634;SDS011;14490;54.208;37.686;2023-06-24T03:03:51;8.52;;;7.78;;
26634;SDS011;14490;54.208;37.686;2023-06-24T03:06:20;8.15;;;7.53;;
26634;SDS011;14490;54.208;37.686;2023-06-24T03:08:50;11.77;;;7.93;;
26634;SDS011;14490;54.208;37.686;2023-06-24T03:11:18;7.70;;;7.10;;
26634;SDS011;14490;54.208;37.686;2023-06-24T03:13:46;7.70;;;7.10;;
26634;SDS011;14490;54.208;37.686;2023-06-24T03:16:13;7.82;;;7.07;;
26634;SDS011;14490;54.208;37.686;2023-06-24T03:18:41;7.85;;;7.07;;
26634;SDS011;14490;54.208;37.686;2023-06-24T03:21:08;8.52;;;7.25;;
26634;SDS011;14490;54.208;37.686;2023-06-24T03:23:36;8.18;;;7.45;;
26634;SDS011;14490;54.208;37.686;2023-06-24T03:26:06;7.57;;;6.88;;
26634;SDS011;14490;54.208;37.686;2023-06-24T03:28:34;10.32;;;7.60;;
26634;SDS011;14490;54.208;37.686;2023-06-24T03:31:03;8.20;;;7.57;;
26634;SDS011;14490;54.208;37.686;2023-06-24T03:33:31;12.63;;;7.47;;
26634;SDS011;14490;54.208;37.686;2023-06-24T03:35:58;7.60;;;7.00;;
26634;SDS011;14490;54.208;37.686;2023-06-24T03:38:25;8.55;;;7.72;;
26634;SDS011;14490;54.208;37.686;2023-06-24T03:40:53;8.65;;;7.90;;
26634;SDS011;14490;54.208;37.686;2023-06-24T03:43:22;7.93;;;7.03;;
26634;SDS011;14490;54.208;37.686;2023-06-24T03:45:50;18.23;;;7.35;;
26634;SDS011;14490;54.208;37.686;2023-06-24T03:48:17;7.07;;;6.40;;
26634;SDS011;14490;54.208;37.686;2023-06-24T03:50:44;8.07;;;7.30;;
26634;SDS011;14490;54.208;37.686;2023-06-24T03:53:12;8.18;;;7.45;;
26634;SDS011;14490;54.208;37.686;2023-06-24T03:55:39;8.02;;;7.25;;
26634;SDS011;14490;54.208;37.686;2023-06-24T03:58:07;7.32;;;6.80;;
26634;SDS011;14490;54.208;37.686;2023-06-24T04:00:36;8.07;;;6.55;;
26634;SDS011;14490;54.208;37.686;2023-06-24T04:03:05;8.27;;;7.47;;
26634;SDS011;14490;54.208;37.686;2023-06-24T04:05:33;7.22;;;6.63;;
26634;SDS011;14490;54.208;37.686;2023-06-24T04:08:01;6.80;;;6.30;;
26634;SDS011;14490;54.208;37.686;2023-06-24T04:10:31;8.20;;;7.50;;
26634;SDS011;14490;54.208;37.686;2023-06-24T04:12:58;7.05;;;6.40;;
26634;SDS011;14490;54.208;37.686;2023-06-24T04:15:26;7.25;;;6.65;;
26634;SDS011;14490;54.208;37.686;2023-06-24T04:17:55;7.20;;;6.60;;
26634;SDS011;14490;54.208;37.686;2023-06-24T04:20:23;7.50;;;6.03;;
26634;SDS011;14490;54.208;37.686;2023-06-24T04:22:50;6.97;;;6.13;;
26634;SDS011;14490;54.208;37.686;2023-06-24T04:25:18;7.75;;;6.78;;
26634;SDS011;14490;54.208;37.686;2023-06-24T04:27:45;6.80;;;6.20;;
26634;SDS011;14490;54.208;37.686;2023-06-24T04:30:13;7.07;;;6.47;;
26634;SDS011;14490;54.208;37.686;2023-06-24T04:32:44;6.57;;;5.97;;
26634;SDS011;14490;54.208;37.686;2023-06-24T04:35:13;7.55;;;6.40;;
26634;SDS011;14490;54.208;37.686;2023-06-24T04:37:42;7.57;;;6.95;;
26634;SDS011;14490;54.208;37.686;2023-06-24T04:40:12;9.10;;;7.25;;
26634;SDS011;14490;54.208;37.686;2023-06-24T04:42:40;7.00;;;6.50;;
26634;SDS011;14490;54.208;37.686;2023-06-24T04:45:14;6.82;;;6.22;;
26634;SDS011;14490;54.208;37.686;2023-06-24T04:47:42;7.03;;;6.53;;
26634;SDS011;14490;54.208;37.686;2023-06-24T04:53:02;8.38;;;6.47;;
26634;SDS011;14490;54.208;37.686;2023-06-24T04:56:01;7.32;;;6.72;;
26634;SDS011;14490;54.208;37.686;2023-06-24T04:59:32;8.25;;;6.65;;
26634;SDS011;14490;54.208;37.686;2023-06-24T05:02:10;7.68;;;7.07;;
26634;SDS011;14490;54.208;37.686;2023-06-24T05:04:37;6.53;;;6.03;;
26634;SDS011;14490;54.208;37.686;2023-06-24T05:07:06;6.60;;;6.10;;
26634;SDS011;14490;54.208;37.686;2023-06-24T05:09:33;7.18;;;6.45;;
26634;SDS011;14490;54.208;37.686;2023-06-24T05:12:03;7.25;;;6.65;;
26634;SDS011;14490;54.208;37.686;2023-06-24T05:14:31;7.60;;;5.72;;
26634;SDS011;14490;54.208;37.686;2023-06-24T05:17:00;7.45;;;6.75;;
26634;SDS011;14490;54.208;37.686;2023-06-24T05:19:27;7.47;;;6.57;;
26634;SDS011;14490;54.208;37.686;2023-06-24T05:21:56;9.88;;;8.60;;
26634;SDS011;14490;54.208;37.686;2023-06-24T05:24:25;8.02;;;6.50;;
26634;SDS011;14490;54.208;37.686;2023-06-24T05:26:53;10.32;;;6.03;;
26634;SDS011;14490;54.208;37.686;2023-06-24T05:29:20;6.22;;;5.72;;
26634;SDS011;14490;54.208;37.686;2023-06-24T05:31:50;10.38;;;6.65;;
26634;SDS011;14490;54.208;37.686;2023-06-24T05:34:18;7.53;;;5.93;;
26634;SDS011;14490;54.208;37.686;2023-06-24T05:36:46;9.57;;;6.05;;
26634;SDS011;14490;54.208;37.686;2023-06-24T05:39:13;9.30;;;6.45;;
26634;SDS011;14490;54.208;37.686;2023-06-24T05:41:42;6.75;;;6.15;;
26634;SDS011;14490;54.208;37.686;2023-06-24T05:44:10;7.10;;;6.40;;
26634;SDS011;14490;54.208;37.686;2023-06-24T05:46:38;7.10;;;6.47;;
26634;SDS011;14490;54.208;37.686;2023-06-24T05:49:05;6.95;;;6.40;;
26634;SDS011;14490;54.208;37.686;2023-06-24T05:51:33;7.15;;;6.50;;
26634;SDS011;14490;54.208;37.686;2023-06-24T05:54:03;9.45;;;7.00;;
26634;SDS011;14490;54.208;37.686;2023-06-24T05:56:32;7.90;;;7.20;;
26634;SDS011;14490;54.208;37.686;2023-06-24T05:59:02;8.13;;;7.32;;
26634;SDS011;14490;54.208;37.686;2023-06-24T06:01:30;9.30;;;7.60;;
26634;SDS011;14490;54.208;37.686;2023-06-24T06:03:58;8.13;;;7.43;;
26634;SDS011;14490;54.208;37.686;2023-06-24T06:06:25;7.22;;;6.72;;
26634;SDS011;14490;54.208;37.686;2023-06-24T06:08:53;7.07;;;6.53;;
26634;SDS011;14490;54.208;37.686;2023-06-24T06:11:25;8.27;;;6.05;;
26634;SDS011;14490;54.208;37.686;2023-06-24T06:13:52;6.43;;;5.95;;
26634;SDS011;14490;54.208;37.686;2023-06-24T06:16:24;6.45;;;5.93;;
26634;SDS011;14490;54.208;37.686;2023-06-24T06:18:53;8.38;;;6.30;;
26634;SDS011;14490;54.208;37.686;2023-06-24T06:21:21;7.38;;;5.80;;
26634;SDS011;14490;54.208;37.686;2023-06-24T06:23:51;6.95;;;6.28;;
26634;SDS011;14490;54.208;37.686;2023-06-24T06:26:21;6.82;;;6.22;;
26634;SDS011;14490;54.208;37.686;2023-06-24T06:28:50;9.93;;;6.60;;
26634;SDS011;14490;54.208;37.686;2023-06-24T06:31:18;8.15;;;6.30;;
26634;SDS011;14490;54.208;37.686;2023-06-24T06:33:53;6.45;;;5.85;;
26634;SDS011;14490;54.208;37.686;2023-06-24T06:36:20;5.97;;;5.47;;
26634;SDS011;14490;54.208;37.686;2023-06-24T06:39:00;6.68;;;6.07;;
26634;SDS011;14490;54.208;37.686;2023-06-24T06:41:34;6.07;;;5.55;;
26634;SDS011;14490;54.208;37.686;2023-06-24T06:44:27;7.47;;;5.95;;
26634;SDS011;14490;54.208;37.686;2023-06-24T06:46:56;8.35;;;7.65;;
26634;SDS011;14490;54.208;37.686;2023-06-24T06:49:23;7.15;;;6.65;;
26634;SDS011;14490;54.208;37.686;2023-06-24T06:51:52;7.82;;;6.25;;
26634;SDS011;14490;54.208;37.686;2023-06-24T06:54:21;8.40;;;6.07;;
26634;SDS011;14490;54.208;37.686;2023-06-24T06:56:51;7.47;;;6.47;;
26634;SDS011;14490;54.208;37.686;2023-06-24T06:59:39;7.60;;;6.47;;
26634;SDS011;14490;54.208;37.686;2023-06-24T07:02:10;6.90;;;6.20;;
26634;SDS011;14490;54.208;37.686;2023-06-24T07:04:40;5.95;;;5.45;;
26634;SDS011;14490;54.208;37.686;2023-06-24T07:07:08;6.32;;;5.72;;
26634;SDS011;14490;54.208;37.686;2023-06-24T07:09:37;7.13;;;6.63;;
26634;SDS011;14490;54.208;37.686;2023-06-24T07:12:07;7.18;;;6.53;;
26634;SDS011;14490;54.208;37.686;2023-06-24T07:14:36;5.93;;;5.43;;
26634;SDS011;14490;54.208;37.686;2023-06-24T07:17:10;11.75;;;6.47;;
26634;SDS011;14490;54.208;37.686;2023-06-24T07:19:38;7.95;;;5.32;;
26634;SDS011;14490;54.208;37.686;2023-06-24T07:22:05;8.23;;;5.63;;
26634;SDS011;14490;54.208;37.686;2023-06-24T07:24:35;6.13;;;5.57;;
26634;SDS011;14490;54.208;37.686;2023-06-24T07:27:06;6.07;;;5.32;;
26634;SDS011;14490;54.208;37.686;2023-06-24T07:29:35;5.72;;;5.22;;
26634;SDS011;14490;54.208;37.686;2023-06-24T07:32:08;5.28;;;4.95;;
26634;SDS011;14490;54.208;37.686;2023-06-24T07:34:41;6.03;;;5.53;;
26634;SDS011;14490;54.208;37.686;2023-06-24T07:37:14;6.88;;;6.22;;
26634;SDS011;14490;54.208;37.686;2023-06-24T07:40:00;6.88;;;6.38;;
26634;SDS011;14490;54.208;37.686;2023-06-24T07:42:36;6.10;;;5.30;;
26634;SDS011;14490;54.208;37.686;2023-06-24T07:45:08;5.32;;;4.93;;
26634;SDS011;14490;54.208;37.686;2023-06-24T07:47:42;5.80;;;5.20;;
26634;SDS011;14490;54.208;37.686;2023-06-24T07:50:11;4.97;;;4.57;;
26634;SDS011;14490;54.208;37.686;2023-06-24T07:52:39;5.43;;;3.60;;
26634;SDS011;14490;54.208;37.686;2023-06-24T07:55:07;5.88;;;4.03;;
26634;SDS011;14490;54.208;37.686;2023-06-24T07:57:35;4.57;;;4.28;;
26634;SDS011;14490;54.208;37.686;2023-06-24T08:00:03;6.15;;;4.40;;
26634;SDS011;14490;54.208;37.686;2023-06-24T08:02:39;4.97;;;4.47;;
26634;SDS011;14490;54.208;37.686;2023-06-24T08:05:14;4.82;;;4.13;;
26634;SDS011;14490;54.208;37.686;2023-06-24T08:07:43;4.70;;;4.40;;
26634;SDS011;14490;54.208;37.686;2023-06-24T08:10:11;4.57;;;4.18;;
26634;SDS011;14490;54.208;37.686;2023-06-24T08:12:41;6.32;;;4.30;;
26634;SDS011;14490;54.208;37.686;2023-06-24T08:15:09;4.45;;;4.15;;
26634;SDS011;14490;54.208;37.686;2023-06-24T08:17:41;3.30;;;3.10;;
26634;SDS011;14490;54.208;37.686;2023-06-24T08:20:12;8.65;;;4.32;;
26634;SDS011;14490;54.208;37.686;2023-06-24T08:22:42;4.40;;;4.10;;
26634;SDS011;14490;54.208;37.686;2023-06-24T08:25:09;4.25;;;4.00;;
26634;SDS011;14490;54.208;37.686;2023-06-24T08:27:40;5.05;;;4.65;;
26634;SDS011;14490;54.208;37.686;2023-06-24T08:30:08;6.07;;;3.97;;
26634;SDS011;14490;54.208;37.686;2023-06-24T08:32:44;4.00;;;3.70;;
26634;SDS011;14490;54.208;37.686;2023-06-24T08:35:11;3.97;;;3.60;;
26634;SDS011;14490;54.208;37.686;2023-06-24T08:37:41;3.35;;;3.03;;
26634;SDS011;14490;54.208;37.686;2023-06-24T08:40:11;4.00;;;3.22;;
26634;SDS011;14490;54.208;37.686;2023-06-24T08:42:43;3.28;;;3.00;;
26634;SDS011;14490;54.208;37.686;2023-06-24T08:45:13;4.03;;;3.63;;
26634;SDS011;14490;54.208;37.686;2023-06-24T08:47:41;3.10;;;2.90;;
26634;SDS011;14490;54.208;37.686;2023-06-24T08:50:13;4.93;;;3.15;;
26634;SDS011;14490;54.208;37.686;2023-06-24T08:52:45;3.88;;;3.60;;
26634;SDS011;14490;54.208;37.686;2023-06-24T08:55:19;3.55;;;3.25;;
26634;SDS011;14490;54.208;37.686;2023-06-24T08:57:56;3.25;;;3.05;;
26634;SDS011;14490;54.208;37.686;2023-06-24T09:00:24;3.70;;;3.40;;
26634;SDS011;14490;54.208;37.686;2023-06-24T09:02:55;4.70;;;3.40;;
26634;SDS011;14490;54.208;37.686;2023-06-24T09:05:24;4.97;;;3.10;;
26634;SDS011;14490;54.208;37.686;2023-06-24T09:07:51;3.70;;;3.47;;
26634;SDS011;14490;54.208;37.686;2023-06-24T09:10:28;5.73;;;3.77;;
26634;SDS011;14490;54.208;37.686;2023-06-24T09:12:59;5.45;;;3.70;;
26634;SDS011;14490;54.208;37.686;2023-06-24T09:15:30;3.85;;;3.25;;
26634;SDS011;14490;54.208;37.686;2023-06-24T09:18:04;5.13;;;2.95;;
26634;SDS011;14490;54.208;37.686;2023-06-24T09:20:32;2.95;;;2.75;;
26634;SDS011;14490;54.208;37.686;2023-06-24T09:23:04;3.83;;;2.95;;
26634;SDS011;14490;54.208;37.686;2023-06-24T09:25:32;3.85;;;2.42;;
26634;SDS011;14490;54.208;37.686;2023-06-24T09:28:00;4.40;;;2.95;;
26634;SDS011;14490;54.208;37.686;2023-06-24T09:30:28;3.28;;;3.05;;
26634;SDS011;14490;54.208;37.686;2023-06-24T09:32:56;3.67;;;3.30;;
26634;SDS011;14490;54.208;37.686;2023-06-24T09:35:27;5.38;;;2.63;;
26634;SDS011;14490;54.208;37.686;2023-06-24T09:38:01;3.13;;;2.17;;
26634;SDS011;14490;54.208;37.686;2023-06-24T09:40:29;3.88;;;2.80;;
26634;SDS011;14490;54.208;37.686;2023-06-24T09:43:02;2.55;;;2.35;;
26634;SDS011;14490;54.208;37.686;2023-06-24T09:45:30;2.90;;;2.70;;
26634;SDS011;14490;54.208;37.686;2023-06-24T09:48:02;3.90;;;1.83;;
26634;SDS011;14490;54.208;37.686;2023-06-24T09:50:35;1.88;;;1.65;;
26634;SDS011;14490;54.208;37.686;2023-06-24T09:53:05;2.55;;;2.35;;
26634;SDS011;14490;54.208;37.686;2023-06-24T09:55:33;2.72;;;2.28;;
26634;SDS011;14490;54.208;37.686;2023-06-24T09:58:00;2.83;;;2.60;;
26634;SDS011;14490;54.208;37.686;2023-06-24T10:00:28;3.05;;;2.55;;
26634;SDS011;14490;54.208;37.686;2023-06-24T10:02:58;2.83;;;2.63;;
26634;SDS011;14490;54.208;37.686;2023-06-24T10:07:58;3.40;;;3.20;;
26634;SDS011;14490;54.208;37.686;2023-06-24T10:10:32;2.90;;;2.70;;
26634;SDS011;14490;54.208;37.686;2023-06-24T10:13:00;2.63;;;2.42;;
26634;SDS011;14490;54.208;37.686;2023-06-24T10:15:28;2.65;;;2.45;;
26634;SDS011;14490;54.208;37.686;2023-06-24T10:17:55;2.75;;;2.00;;
26634;SDS011;14490;54.208;37.686;2023-06-24T10:20:29;2.17;;;1.98;;
26634;SDS011;14490;54.208;37.686;2023-06-24T10:22:58;3.03;;;2.80;;
26634;SDS011;14490;54.208;37.686;2023-06-24T10:25:27;2.05;;;1.95;;
26634;SDS011;14490;54.208;37.686;2023-06-24T10:28:03;6.22;;;2.60;;
26634;SDS011;14490;54.208;37.686;2023-06-24T10:30:31;3.00;;;2.80;;
26634;SDS011;14490;54.208;37.686;2023-06-24T10:33:02;2.10;;;2.00;;
26634;SDS011;14490;54.208;37.686;2023-06-24T10:35:29;2.55;;;2.40;;
26634;SDS011;14490;54.208;37.686;2023-06-24T10:38:01;2.58;;;2.45;;
26634;SDS011;14490;54.208;37.686;2023-06-24T10:40:35;3.10;;;2.90;;
26634;SDS011;14490;54.208;37.686;2023-06-24T10:45:55;2.97;;;1.90;;
26634;SDS011;14490;54.208;37.686;2023-06-24T10:48:24;4.38;;;2.50;;
26634;SDS011;14490;54.208;37.686;2023-06-24T10:50:51;3.10;;;2.63;;
26634;SDS011;14490;54.208;37.686;2023-06-24T10:53:21;3.00;;;2.60;;
26634;SDS011;14490;54.208;37.686;2023-06-24T10:55:49;3.45;;;2.67;;
26634;SDS011;14490;54.208;37.686;2023-06-24T10:58:16;1.98;;;1.85;;
26634;SDS011;14490;54.208;37.686;2023-06-24T11:00:44;5.88;;;2.30;;
26634;SDS011;14490;54.208;37.686;2023-06-24T11:03:12;4.90;;;2.92;;
26634;SDS011;14490;54.208;37.686;2023-06-24T11:05:44;2.17;;;1.95;;
26634;SDS011;14490;54.208;37.686;2023-06-24T11:08:18;4.32;;;2.80;;
26634;SDS011;14490;54.208;37.686;2023-06-24T11:10:51;3.45;;;2.75;;
26634;SDS011;14490;54.208;37.686;2023-06-24T11:13:25;3.47;;;3.15;;
26634;SDS011;14490;54.208;37.686;2023-06-24T11:16:12;4.15;;;3.85;;
26634;SDS011;14490;54.208;37.686;2023-06-24T11:18:45;3.75;;;3.35;;
26634;SDS011;14490;54.208;37.686;2023-06-24T11:21:14;3.63;;;3.33;;
26634;SDS011;14490;54.208;37.686;2023-06-24T11:26:39;3.35;;;3.10;;
26634;SDS011;14490;54.208;37.686;2023-06-24T11:29:15;3.92;;;3.58;;
26634;SDS011;14490;54.208;37.686;2023-06-24T11:31:49;8.27;;;4.43;;
26634;SDS011;14490;54.208;37.686;2023-06-24T11:34:17;4.93;;;4.60;;
26634;SDS011;14490;54.208;37.686;2023-06-24T11:36:46;4.88;;;4.15;;
26634;SDS011;14490;54.208;37.686;2023-06-24T11:39:42;3.50;;;3.20;;
26634;SDS011;14490;54.208;37.686;2023-06-24T11:42:13;5.88;;;3.78;;
26634;SDS011;14490;54.208;37.686;2023-06-24T11:44:41;4.57;;;4.07;;
26634;SDS011;14490;54.208;37.686;2023-06-24T11:47:13;6.57;;;4.07;;
26634;SDS011;14490;54.208;37.686;2023-06-24T11:49:50;5.18;;;3.80;;
26634;SDS011;14490;54.208;37.686;2023-06-24T11:52:27;4.53;;;4.15;;
26634;SDS011;14490;54.208;37.686;2023-06-24T11:55:02;4.25;;;3.10;;
26634;SDS011;14490;54.208;37.686;2023-06-24T12:00:27;3.88;;;2.70;;
26634;SDS011;14490;54.208;37.686;2023-06-24T12:03:05;5.25;;;2.42;;
26634;SDS011;14490;54.208;37.686;2023-06-24T12:06:04;4.05;;;2.58;;
26634;SDS011;14490;54.208;37.686;2023-06-24T12:08:40;3.90;;;2.50;;
26634;SDS011;14490;54.208;37.686;2023-06-24T12:11:14;5.70;;;2.30;;
26634;SDS011;14490;54.208;37.686;2023-06-24T12:13:45;2.55;;;1.90;;
26634;SDS011;14490;54.208;37.686;2023-06-24T12:16:21;1.65;;;1.55;;
26634;SDS011;14490;54.208;37.686;2023-06-24T12:18:53;2.10;;;1.55;;
26634;SDS011;14490;54.208;37.686;2023-06-24T12:22:00;5.63;;;1.30;;
26634;SDS011;14490;54.208;37.686;2023-06-24T12:24:33;2.28;;;1.67;;
26634;SDS011;14490;54.208;37.686;2023-06-24T12:27:03;1.15;;;1.05;;
26634;SDS011;14490;54.208;37.686;2023-06-24T12:29:31;3.67;;;1.30;;
26634;SDS011;14490;54.208;37.686;2023-06-24T12:32:05;0.80;;;0.80;;
26634;SDS011;14490;54.208;37.686;2023-06-24T12:34:34;1.33;;;0.70;;
26634;SDS011;14490;54.208;37.686;2023-06-24T12:37:32;2.97;;;0.68;;
26634;SDS011;14490;54.208;37.686;2023-06-24T12:40:24;3.80;;;0.60;;
26634;SDS011;14490;54.208;37.686;2023-06-24T12:42:53;2.63;;;0.50;;
26634;SDS011;14490;54.208;37.686;2023-06-24T12:45:22;3.92;;;1.00;;
26634;SDS011;14490;54.208;37.686;2023-06-24T12:47:54;0.45;;;0.40;;
26634;SDS011;14490;54.208;37.686;2023-06-24T12:50:43;4.40;;;0.80;;
26634;SDS011;14490;54.208;37.686;2023-06-24T12:53:12;1.50;;;0.63;;
26634;SDS011;14490;54.208;37.686;2023-06-24T12:55:43;1.90;;;0.98;;
26634;SDS011;14490;54.208;37.686;2023-06-24T12:58:26;1.38;;;0.73;;
26634;SDS011;14490;54.208;37.686;2023-06-24T13:00:57;2.33;;;0.50;;
26634;SDS011;14490;54.208;37.686;2023-06-24T13:03:39;3.20;;;0.50;;
26634;SDS011;14490;54.208;37.686;2023-06-24T13:06:11;6.53;;;0.70;;
26634;SDS011;14490;54.208;37.686;2023-06-24T13:08:53;5.20;;;0.70;;
26634;SDS011;14490;54.208;37.686;2023-06-24T13:12:07;0.75;;;0.40;;
26634;SDS011;14490;54.208;37.686;2023-06-24T13:18:05;3.10;;;0.43;;
26634;SDS011;14490;54.208;37.686;2023-06-24T13:20:45;2.58;;;0.40;;
26634;SDS011;14490;54.208;37.686;2023-06-24T13:23:17;3.03;;;0.93;;
26634;SDS011;14490;54.208;37.686;2023-06-24T13:26:38;1.52;;;0.85;;
26634;SDS011;14490;54.208;37.686;2023-06-24T13:29:22;1.40;;;0.60;;
26634;SDS011;14490;54.208;37.686;2023-06-24T13:31:50;0.80;;;0.52;;
26634;SDS011;14490;54.208;37.686;2023-06-24T13:34:26;5.70;;;0.52;;
26634;SDS011;14490;54.208;37.686;2023-06-24T13:36:59;2.30;;;0.40;;
26634;SDS011;14490;54.208;37.686;2023-06-24T13:39:27;1.45;;;0.50;;
26634;SDS011;14490;54.208;37.686;2023-06-24T13:41:56;0.75;;;0.40;;
26634;SDS011;14490;54.208;37.686;2023-06-24T13:44:29;1.65;;;0.30;;
26634;SDS011;14490;54.208;37.686;2023-06-24T13:46:57;0.47;;;0.40;;
26634;SDS011;14490;54.208;37.686;2023-06-24T13:49:26;2.00;;;0.30;;
26634;SDS011;14490;54.208;37.686;2023-06-24T13:51:54;1.90;;;0.60;;
26634;SDS011;14490;54.208;37.686;2023-06-24T13:56:57;0.80;;;0.50;;
26634;SDS011;14490;54.208;37.686;2023-06-24T13:59:28;1.80;;;0.63;;
26634;SDS011;14490;54.208;37.686;2023-06-24T14:01:58;2.85;;;0.68;;
26634;SDS011;14490;54.208;37.686;2023-06-24T14:04:42;1.00;;;0.63;;
26634;SDS011;14490;54.208;37.686;2023-06-24T14:07:15;3.38;;;0.88;;
26634;SDS011;14490;54.208;37.686;2023-06-24T14:10:11;1.40;;;0.60;;
26634;SDS011;14490;54.208;37.686;2023-06-24T14:12:42;2.33;;;0.82;;
26634;SDS011;14490;54.208;37.686;2023-06-24T14:15:16;1.70;;;0.63;;
26634;SDS011;14490;54.208;37.686;2023-06-24T14:17:44;3.00;;;1.60;;
26634;SDS011;14490;54.208;37.686;2023-06-24T14:20:22;1.88;;;1.17;;
26634;SDS011;14490;54.208;37.686;2023-06-24T14:22:50;1.55;;;1.05;;
26634;SDS011;14490;54.208;37.686;2023-06-24T14:25:21;2.10;;;1.10;;
26634;SDS011;14490;54.208;37.686;2023-06-24T14:27:55;1.45;;;1.20;;
26634;SDS011;14490;54.208;37.686;2023-06-24T14:30:25;2.37;;;1.30;;
26634;SDS011;14490;54.208;37.686;2023-06-24T14:32:59;3.83;;;1.15;;
26634;SDS011;14490;54.208;37.686;2023-06-24T14:35:40;2.80;;;1.17;;
26634;SDS011;14490;54.208;37.686;2023-06-24T14:38:12;1.63;;;1.20;;
26634;SDS011;14490;54.208;37.686;2023-06-24T14:43:32;2.20;;;1.75;;
26634;SDS011;14490;54.208;37.686;2023-06-24T14:46:00;1.60;;;1.50;;
26634;SDS011;14490;54.208;37.686;2023-06-24T14:48:30;3.10;;;2.05;;
26634;SDS011;14490;54.208;37.686;2023-06-24T14:50:59;2.00;;;1.90;;
26634;SDS011;14490;54.208;37.686;2023-06-24T14:53:28;3.83;;;1.88;;
26634;SDS011;14490;54.208;37.686;2023-06-24T14:55:57;2.78;;;2.20;;
26634;SDS011;14490;54.208;37.686;2023-06-24T14:58:28;4.82;;;2.35;;
26634;SDS011;14490;54.208;37.686;2023-06-24T15:00:57;2.75;;;2.25;;
26634;SDS011;14490;54.208;37.686;2023-06-24T15:03:30;2.30;;;2.17;;
26634;SDS011;14490;54.208;37.686;2023-06-24T15:08:53;2.33;;;2.13;;
26634;SDS011;14490;54.208;37.686;2023-06-24T15:11:43;3.55;;;1.58;;
26634;SDS011;14490;54.208;37.686;2023-06-24T15:14:14;2.10;;;1.70;;
26634;SDS011;14490;54.208;37.686;2023-06-24T15:16:44;2.28;;;2.08;;
26634;SDS011;14490;54.208;37.686;2023-06-24T15:19:14;2.40;;;2.20;;
26634;SDS011;14490;54.208;37.686;2023-06-24T15:21:45;7.82;;;2.15;;
26634;SDS011;14490;54.208;37.686;2023-06-24T15:24:13;5.47;;;2.10;;
26634;SDS011;14490;54.208;37.686;2023-06-24T15:26:40;2.10;;;1.80;;